Time;durP1;ratioP1;P1;durP2;ratioP2;P2;SDS_P1;SDS_P2;PMS_P1;PMS_P2;Temp;Humidity;BMP_temperature;BMP_pressure;BME280_temperature;BME280_humidity;BME280_pressure;Samples;Min_cycle;Max_cycle;Signal;HPM_P1;HPM_P2
2021/04/29 00:01:45;;;;;;;12.65;11.35;;;10.10;54.00;;;;;;5029099;28;20033;-86
2021/04/29 00:04:12;;;;;;;11.98;10.80;;;10.10;54.10;;;;;;5028514;28;20381;-80
2021/04/29 00:06:38;;;;;;;12.15;11.05;;;10.00;53.90;;;;;;5004050;28;20104;-81
2021/04/29 00:09:05;;;;;;;11.55;10.45;;;10.00;54.00;;;;;;5028485;28;20388;-81
2021/04/29 00:11:32;;;;;;;12.68;10.15;;;10.00;54.00;;;;;;5033971;28;20089;-80
2021/04/29 00:13:58;;;;;;;10.88;9.65;;;10.00;54.10;;;;;;5030210;28;20091;-80
2021/04/29 00:16:24;;;;;;;12.50;10.23;;;9.90;54.50;;;;;;5024500;28;20025;-81
2021/04/29 00:18:50;;;;;;;10.50;9.50;;;9.90;53.90;;;;;;5042531;28;20059;-83
2021/04/29 00:21:16;;;;;;;11.80;9.48;;;9.90;54.00;;;;;;5024442;28;20040;-84
2021/04/29 00:23:42;;;;;;;10.80;9.77;;;9.90;54.00;;;;;;5010418;28;20030;-79
2021/04/29 00:26:08;;;;;;;9.85;8.82;;;9.90;54.00;;;;;;5022732;28;20042;-78
2021/04/29 00:28:34;;;;;;;12.00;9.73;;;9.80;53.80;;;;;;5026491;28;20087;-80
2021/04/29 00:31:00;;;;;;;9.85;8.77;;;9.90;54.00;;;;;;5021939;28;20026;-81
2021/04/29 00:33:26;;;;;;;10.23;9.10;;;9.80;53.90;;;;;;5023464;28;20485;-78
2021/04/29 00:35:53;;;;;;;8.63;7.82;;;9.80;53.90;;;;;;5011344;28;20044;-79
2021/04/29 00:38:19;;;;;;;8.65;7.65;;;9.80;53.90;;;;;;5009455;28;20462;-80
2021/04/29 00:40:45;;;;;;;9.38;8.45;;;9.70;53.70;;;;;;5028426;28;20025;-79
2021/04/29 00:43:12;;;;;;;9.45;8.55;;;9.70;53.70;;;;;;5024524;28;20357;-80
2021/04/29 00:45:39;;;;;;;11.05;8.93;;;9.70;53.70;;;;;;5028387;28;20029;-79
2021/04/29 00:48:06;;;;;;;8.02;7.18;;;9.70;53.70;;;;;;5011824;28;20034;-78
2021/04/29 00:50:33;;;;;;;8.90;7.85;;;9.70;53.70;;;;;;5026255;28;20026;-85
2021/04/29 00:53:00;;;;;;;8.35;7.53;;;9.60;53.60;;;;;;4994218;28;20132;-81
2021/04/29 00:55:26;;;;;;;8.50;7.72;;;9.60;53.50;;;;;;5010452;28;20029;-78
2021/04/29 00:57:54;;;;;;;8.57;7.65;;;9.60;53.50;;;;;;5010008;28;20492;-80
2021/04/29 01:00:21;;;;;;;11.25;7.63;;;9.60;53.60;;;;;;5011280;28;20045;-82
2021/04/29 01:03:16;;;;;;;9.38;7.57;;;9.50;53.40;;;;;;5035021;28;20025;-80
2021/04/29 01:05:54;;;;;;;9.93;6.93;;;9.50;53.50;;;;;;5035118;28;20328;-82
2021/04/29 01:08:31;;;;;;;8.13;7.32;;;9.50;53.50;;;;;;5026512;28;20087;-83
2021/04/29 01:11:28;;;;;;;8.43;7.38;;;9.50;53.50;;;;;;5030822;28;20527;-82
2021/04/29 01:13:58;;;;;;;7.97;7.18;;;9.40;53.30;;;;;;4995255;28;20206;-82
2021/04/29 01:16:25;;;;;;;7.72;6.88;;;9.40;53.30;;;;;;5013859;28;20477;-85
2021/04/29 01:18:53;;;;;;;7.93;7.13;;;9.40;53.30;;;;;;5030867;28;20384;-83
2021/04/29 01:21:21;;;;;;;7.28;6.53;;;9.40;53.30;;;;;;5025612;28;20030;-81
2021/04/29 01:24:03;;;;;;;8.10;6.63;;;9.40;53.30;;;;;;5015999;28;20096;-80
2021/04/29 01:26:29;;;;;;;8.15;6.72;;;9.40;53.40;;;;;;5023187;28;20046;-84
2021/04/29 01:28:56;;;;;;;7.93;6.30;;;9.30;53.10;;;;;;4993605;28;20129;-82
2021/04/29 01:31:32;;;;;;;7.13;6.07;;;9.30;53.10;;;;;;5012592;28;20030;-80
2021/04/29 01:34:00;;;;;;;7.40;6.70;;;9.30;53.20;;;;;;5008543;28;20137;-80
2021/04/29 01:36:30;;;;;;;6.47;5.90;;;9.30;53.10;;;;;;5021765;28;20044;-79
2021/04/29 01:38:58;;;;;;;6.82;5.97;;;9.30;53.10;;;;;;4995106;28;20049;-84
2021/04/29 01:41:26;;;;;;;7.25;5.90;;;9.30;53.10;;;;;;5011656;28;20091;-80
2021/04/29 01:43:52;;;;;;;6.80;6.13;;;9.30;53.10;;;;;;4982609;28;20044;-82
2021/04/29 01:46:19;;;;;;;6.30;5.03;;;9.30;53.10;;;;;;5001726;28;20452;-82
2021/04/29 01:48:46;;;;;;;7.22;6.15;;;9.20;52.90;;;;;;4997252;28;20030;-80
2021/04/29 01:51:12;;;;;;;7.25;5.47;;;9.20;52.90;;;;;;5025471;28;20068;-85
2021/04/29 01:53:39;;;;;;;7.05;5.75;;;9.20;52.90;;;;;;5014579;28;20051;-82
2021/04/29 01:56:05;;;;;;;7.97;5.43;;;9.20;52.90;;;;;;5009231;28;20485;-82
2021/04/29 01:58:31;;;;;;;8.35;6.50;;;9.20;52.90;;;;;;5021042;28;20388;-79
2021/04/29 02:01:00;;;;;;;9.32;6.53;;;9.20;52.90;;;;;;4998105;28;20026;-89
2021/04/29 02:03:27;;;;;;;7.65;5.75;;;9.20;52.80;;;;;;5028941;28;20029;-82
2021/04/29 02:05:55;;;;;;;8.65;6.18;;;9.10;52.60;;;;;;5014231;28;20022;-81
2021/04/29 02:08:21;;;;;;;6.75;6.05;;;9.10;52.60;;;;;;5013253;28;20036;-80
2021/04/29 02:10:48;;;;;;;6.75;5.30;;;9.10;52.60;;;;;;4997428;28;20041;-82
2021/04/29 02:13:15;;;;;;;7.10;5.57;;;9.10;52.60;;;;;;5006010;28;20400;-80
2021/04/29 02:15:51;;;;;;;6.78;5.88;;;9.10;52.60;;;;;;5006218;28;20544;-82
2021/04/29 02:18:22;;;;;;;7.63;5.20;;;9.10;52.60;;;;;;5008318;28;20069;-79
2021/04/29 02:20:50;;;;;;;5.65;5.13;;;9.10;52.60;;;;;;5029909;28;20488;-80
2021/04/29 02:23:19;;;;;;;9.88;5.70;;;9.10;52.60;;;;;;5029890;28;20072;-82
2021/04/29 02:25:48;;;;;;;4.97;4.57;;;9.00;52.40;;;;;;5021538;28;20531;-80
2021/04/29 02:28:16;;;;;;;7.18;5.50;;;9.00;52.40;;;;;;5017181;28;20033;-81
2021/04/29 02:30:42;;;;;;;5.85;5.10;;;9.00;52.40;;;;;;4987090;28;20099;-80
2021/04/29 02:33:09;;;;;;;5.68;4.90;;;8.90;52.30;;;;;;5026766;28;20034;-80
2021/04/29 02:35:35;;;;;;;7.07;5.28;;;8.90;52.30;;;;;;4992053;28;20040;-79
2021/04/29 02:38:02;;;;;;;6.97;5.20;;;8.90;52.20;;;;;;4987034;28;20049;-82
2021/04/29 02:40:29;;;;;;;6.07;5.35;;;8.90;52.20;;;;;;4997387;28;20065;-79
2021/04/29 02:42:56;;;;;;;8.20;5.10;;;8.90;52.30;;;;;;5014078;28;20117;-79
2021/04/29 02:45:23;;;;;;;9.23;5.57;;;8.80;52.10;;;;;;5014223;28;20069;-80
2021/04/29 02:47:50;;;;;;;6.40;5.80;;;8.80;52.10;;;;;;5013544;28;20030;-81
2021/04/29 02:50:22;;;;;;;6.10;5.00;;;8.80;52.10;;;;;;5013848;28;20060;-82
2021/04/29 02:52:53;;;;;;;6.68;5.05;;;8.80;52.20;;;;;;5017477;28;20026;-79
2021/04/29 02:55:23;;;;;;;6.70;5.15;;;8.70;52.10;;;;;;5015049;28;20477;-80
2021/04/29 02:57:49;;;;;;;7.68;5.53;;;8.70;52.00;;;;;;5045096;28;20026;-78
2021/04/29 03:00:18;;;;;;;5.32;4.50;;;8.70;52.00;;;;;;5022165;28;20037;-79
2021/04/29 03:02:45;;;;;;;5.97;5.07;;;8.60;51.90;;;;;;5038820;28;20167;-79
2021/04/29 03:05:14;;;;;;;8.30;4.90;;;8.60;51.90;;;;;;5022645;28;20029;-80
2021/04/29 03:07:42;;;;;;;5.35;4.45;;;8.60;52.00;;;;;;5026869;28;20422;-84
2021/04/29 03:10:11;;;;;;;7.50;4.93;;;8.60;52.00;;;;;;5033478;28;20029;-79
2021/04/29 03:12:37;;;;;;;5.57;4.50;;;8.50;51.80;;;;;;5033028;28;20026;-81
2021/04/29 03:15:05;;;;;;;6.28;5.30;;;8.50;51.80;;;;;;5033404;28;20033;-81
2021/04/29 03:17:31;;;;;;;7.13;5.50;;;8.50;51.90;;;;;;4980708;28;20025;-81
2021/04/29 03:19:57;;;;;;;9.00;5.25;;;8.50;51.90;;;;;;5013040;28;20045;-81
2021/04/29 03:22:23;;;;;;;6.53;4.78;;;8.50;51.90;;;;;;4981038;28;20121;-82
2021/04/29 03:24:50;;;;;;;6.88;4.90;;;8.40;51.70;;;;;;5014669;28;20056;-83
2021/04/29 03:27:16;;;;;;;5.93;4.70;;;8.40;51.80;;;;;;5016780;28;20040;-83
2021/04/29 03:29:43;;;;;;;5.63;4.93;;;8.40;51.80;;;;;;5016714;28;20040;-81
2021/04/29 03:32:09;;;;;;;4.88;4.32;;;8.40;51.80;;;;;;5017908;28;20052;-84
2021/04/29 03:34:35;;;;;;;7.43;5.32;;;8.30;51.60;;;;;;5036927;28;20468;-82
2021/04/29 03:37:02;;;;;;;6.03;5.15;;;8.30;51.70;;;;;;5035680;28;20128;-81
2021/04/29 03:39:27;;;;;;;5.63;4.38;;;8.30;51.70;;;;;;5031139;28;20029;-80
2021/04/29 03:41:55;;;;;;;5.82;4.55;;;8.30;51.70;;;;;;5008254;28;20030;-81
2021/04/29 03:44:21;;;;;;;6.18;4.78;;;8.20;51.50;;;;;;5044536;28;20028;-80
2021/04/29 03:46:47;;;;;;;4.93;4.25;;;8.20;51.60;;;;;;5003898;28;20024;-79
2021/04/29 03:49:13;;;;;;;5.13;4.63;;;8.20;51.60;;;;;;5035648;28;20025;-80
2021/04/29 03:51:39;;;;;;;5.57;4.75;;;8.10;51.40;;;;;;5032612;28;20362;-80
2021/04/29 03:54:07;;;;;;;5.28;4.72;;;8.20;51.60;;;;;;5033768;28;20048;-81
2021/04/29 03:56:33;;;;;;;5.28;4.78;;;8.10;51.50;;;;;;5035824;28;20068;-81
2021/04/29 03:58:59;;;;;;;4.80;4.40;;;8.10;51.50;;;;;;5028061;28;20029;-84
2021/04/29 04:01:27;;;;;;;4.43;4.03;;;8.00;51.30;;;;;;4998504;28;20521;-80
2021/04/29 04:03:53;;;;;;;5.78;5.22;;;8.00;51.40;;;;;;5014551;28;20072;-81
2021/04/29 04:06:19;;;;;;;5.57;5.07;;;8.00;51.40;;;;;;5034081;28;20464;-79
2021/04/29 04:08:45;;;;;;;5.47;4.38;;;7.90;51.30;;;;;;5013938;28;20029;-82
2021/04/29 04:11:11;;;;;;;6.07;4.90;;;7.90;51.30;;;;;;5012730;28;20061;-82
2021/04/29 04:13:37;;;;;;;5.05;4.55;;;7.80;51.20;;;;;;5035197;28;20060;-88
2021/04/29 04:16:03;;;;;;;5.03;4.55;;;7.80;51.30;;;;;;5019654;28;20036;-80
2021/04/29 04:18:29;;;;;;;5.70;5.10;;;7.80;51.30;;;;;;5027937;28;20087;-80
2021/04/29 04:20:55;;;;;;;5.93;5.10;;;7.70;51.20;;;;;;4999221;28;20481;-88
2021/04/29 04:23:21;;;;;;;5.10;4.60;;;7.70;51.30;;;;;;5015971;28;20080;-79
2021/04/29 04:25:47;;;;;;;6.53;5.22;;;7.70;51.30;;;;;;5015452;28;20079;-80
2021/04/29 04:28:13;;;;;;;4.90;4.50;;;7.60;51.10;;;;;;5015020;28;20033;-79
2021/04/29 04:30:40;;;;;;;6.82;4.85;;;7.60;51.20;;;;;;5015101;28;20029;-80
2021/04/29 04:33:06;;;;;;;5.50;5.00;;;7.60;51.20;;;;;;5014587;28;20043;-82
2021/04/29 04:35:32;;;;;;;5.57;4.65;;;7.60;51.20;;;;;;4999722;28;20665;-81
2021/04/29 04:37:58;;;;;;;5.88;5.05;;;7.50;51.10;;;;;;5014914;28;20175;-80
2021/04/29 04:40:24;;;;;;;5.93;4.88;;;7.50;51.10;;;;;;5015374;28;20037;-81
2021/04/29 04:42:50;;;;;;;6.15;5.07;;;7.50;51.20;;;;;;5014631;28;20028;-81
2021/04/29 04:45:17;;;;;;;6.80;4.80;;;7.50;51.20;;;;;;5011112;28;20367;-81
2021/04/29 04:47:43;;;;;;;5.30;4.80;;;7.50;51.20;;;;;;5008033;28;20034;-80
2021/04/29 04:50:10;;;;;;;5.07;4.57;;;7.40;51.00;;;;;;5012454;28;20080;-81
2021/04/29 04:52:36;;;;;;;5.18;4.68;;;7.40;51.00;;;;;;4994250;28;20721;-81
2021/04/29 04:55:03;;;;;;;6.03;5.43;;;7.40;51.70;;;;;;4988842;28;20459;-81
2021/04/29 04:57:29;;;;;;;5.70;5.10;;;7.40;51.10;;;;;;5008383;28;20112;-79
2021/04/29 04:59:55;;;;;;;5.85;5.25;;;7.40;51.10;;;;;;4978538;28;20037;-80
2021/04/29 05:02:21;;;;;;;5.55;5.05;;;7.40;51.10;;;;;;5008451;28;20038;-82
2021/04/29 05:04:47;;;;;;;4.88;4.40;;;7.40;51.10;;;;;;5009444;28;20028;-80
2021/04/29 05:07:14;;;;;;;9.02;5.30;;;7.40;51.20;;;;;;5021378;28;20044;-82
2021/04/29 05:09:42;;;;;;;4.30;3.90;;;7.40;51.20;;;;;;5010381;28;20131;-82
2021/04/29 05:12:10;;;;;;;6.18;5.30;;;7.40;51.20;;;;;;5010452;28;20036;-83
2021/04/29 05:14:36;;;;;;;7.05;5.55;;;7.40;51.20;;;;;;4993479;28;20076;-82
2021/04/29 05:17:02;;;;;;;5.90;5.30;;;7.50;51.30;;;;;;5010731;28;20519;-81
2021/04/29 05:19:29;;;;;;;5.15;4.65;;;7.50;51.30;;;;;;5029232;28;20363;-81
2021/04/29 05:21:55;;;;;;;5.85;5.35;;;7.60;51.50;;;;;;5004204;28;20036;-87
2021/04/29 05:24:21;;;;;;;5.95;5.45;;;7.60;51.40;;;;;;5003406;28;20117;-83
2021/04/29 05:26:48;;;;;;;6.10;4.68;;;7.60;51.40;;;;;;4999223;28;20093;-80
2021/04/29 05:29:14;;;;;;;6.07;4.68;;;7.70;51.50;;;;;;4989128;28;20076;-81
2021/04/29 05:31:40;;;;;;;5.28;4.78;;;7.80;51.80;;;;;;4968972;28;20283;-80
2021/04/29 05:34:06;;;;;;;4.93;4.53;;;7.80;52.00;;;;;;4982659;28;20045;-80
2021/04/29 05:36:32;;;;;;;6.22;5.22;;;7.90;52.10;;;;;;4978298;28;20029;-79
2021/04/29 05:38:59;;;;;;;6.45;4.93;;;8.00;52.30;;;;;;4978312;28;20029;-84
2021/04/29 05:41:26;;;;;;;7.53;5.40;;;8.00;52.20;;;;;;4992812;28;20033;-83
2021/04/29 05:43:52;;;;;;;5.13;4.60;;;8.10;52.30;;;;;;4989391;28;20033;-80
2021/04/29 05:46:18;;;;;;;7.15;5.60;;;8.20;52.40;;;;;;4979365;28;20030;-82
2021/04/29 05:48:44;;;;;;;6.30;5.70;;;8.30;52.60;;;;;;4992159;28;20060;-80
2021/04/29 05:51:11;;;;;;;5.25;4.75;;;8.30;52.50;;;;;;4973599;28;20490;-79
2021/04/29 05:53:38;;;;;;;5.90;5.05;;;8.40;52.60;;;;;;4977485;28;20048;-80
2021/04/29 05:56:06;;;;;;;5.70;5.05;;;8.40;52.60;;;;;;4990187;28;20492;-81
2021/04/29 05:58:34;;;;;;;10.50;6.20;;;8.50;52.80;;;;;;4970907;28;20112;-80
2021/04/29 06:01:02;;;;;;;6.22;5.28;;;8.50;52.70;;;;;;4974156;28;20029;-79
2021/04/29 06:03:28;;;;;;;6.85;6.13;;;8.60;52.80;;;;;;4984208;28;20473;-78
2021/04/29 06:05:55;;;;;;;5.90;5.28;;;8.70;52.90;;;;;;4999897;28;20032;-80
2021/04/29 06:08:21;;;;;;;6.25;5.68;;;8.80;53.00;;;;;;4999384;28;20049;-81
2021/04/29 06:10:48;;;;;;;8.05;5.90;;;8.90;53.10;;;;;;4993465;28;20038;-81
2021/04/29 06:13:14;;;;;;;6.10;5.50;;;9.00;53.20;;;;;;4993991;28;20125;-81
2021/04/29 06:15:41;;;;;;;8.20;5.93;;;9.10;53.30;;;;;;4999115;28;20451;-81
2021/04/29 06:18:09;;;;;;;6.40;5.80;;;9.20;53.50;;;;;;4990065;28;20019;-81
2021/04/29 06:20:35;;;;;;;6.78;5.90;;;9.30;53.60;;;;;;4977979;28;20050;-80
2021/04/29 06:23:01;;;;;;;7.55;5.72;;;9.50;53.90;;;;;;4981060;28;20022;-79
2021/04/29 06:25:28;;;;;;;7.20;6.60;;;9.60;54.60;;;;;;4992115;28;20516;-80
2021/04/29 06:27:56;;;;;;;7.28;6.53;;;9.80;54.30;;;;;;5010996;28;20056;-78
2021/04/29 06:30:24;;;;;;;7.50;6.57;;;10.00;54.60;;;;;;5010484;28;20052;-80
2021/04/29 06:32:50;;;;;;;8.23;5.82;;;10.10;54.60;;;;;;5027535;28;20025;-81
2021/04/29 06:35:16;;;;;;;6.13;5.63;;;10.30;54.80;;;;;;4995507;28;20045;-79
2021/04/29 06:37:44;;;;;;;7.82;7.03;;;10.50;55.00;;;;;;5013919;28;20103;-79
2021/04/29 06:40:12;;;;;;;7.75;6.43;;;10.70;55.10;;;;;;4996036;28;20030;-79
2021/04/29 06:42:39;;;;;;;7.75;6.95;;;10.90;55.20;;;;;;5011654;28;20030;-79
2021/04/29 06:45:05;;;;;;;7.95;6.40;;;11.00;55.30;;;;;;4995297;28;20114;-81
2021/04/29 06:47:33;;;;;;;8.43;6.82;;;11.20;55.50;;;;;;4996310;28;20060;-78
2021/04/29 06:50:00;;;;;;;8.25;7.00;;;11.30;55.50;;;;;;5029854;28;20181;-79
2021/04/29 06:52:26;;;;;;;7.78;6.97;;;11.50;55.80;;;;;;5013248;28;20072;-79
2021/04/29 06:54:52;;;;;;;7.35;6.57;;;11.70;55.90;;;;;;5028950;28;20041;-81
2021/04/29 06:57:18;;;;;;;8.55;7.57;;;12.00;56.20;;;;;;4996916;28;20030;-80
2021/04/29 06:59:45;;;;;;;8.00;7.15;;;12.20;56.30;;;;;;4996786;28;20035;-81
2021/04/29 07:02:11;;;;;;;8.25;7.40;;;12.50;56.50;;;;;;4996493;28;20037;-81
2021/04/29 07:04:37;;;;;;;8.95;6.50;;;12.80;57.30;;;;;;4995836;28;20136;-82
2021/04/29 07:07:04;;;;;;;7.55;6.85;;;13.00;56.60;;;;;;5011773;28;20101;-81
2021/04/29 07:09:30;;;;;;;7.53;6.82;;;13.30;56.90;;;;;;4995426;28;20056;-80
2021/04/29 07:11:56;;;;;;;7.35;6.47;;;13.50;56.90;;;;;;4994243;28;20037;-81
2021/04/29 07:14:22;;;;;;;7.05;6.35;;;13.80;56.70;;;;;;5011174;28;20087;-78
2021/04/29 07:16:49;;;;;;;7.38;6.30;;;13.90;56.30;;;;;;5012875;28;20025;-81
2021/04/29 07:19:15;;;;;;;6.38;5.78;;;13.90;56.00;;;;;;4996170;28;20041;-81
2021/04/29 07:21:41;;;;;;;6.72;6.03;;;14.00;55.90;;;;;;5012162;28;20082;-81
2021/04/29 07:24:07;;;;;;;7.80;6.38;;;14.20;56.10;;;;;;4996034;28;20049;-80
2021/04/29 07:26:34;;;;;;;6.88;6.25;;;14.30;55.90;;;;;;5012026;28;20068;-81
2021/04/29 07:29:04;;;;;;;7.35;5.95;;;14.50;56.10;;;;;;5013577;28;20068;-81
2021/04/29 07:31:31;;;;;;;6.50;5.90;;;14.70;56.00;;;;;;4996592;28;20026;-81
2021/04/29 07:33:58;;;;;;;6.85;6.25;;;15.00;56.20;;;;;;4979552;28;20496;-80
2021/04/29 07:36:25;;;;;;;5.50;5.10;;;15.30;56.20;;;;;;5011783;28;20029;-80
2021/04/29 07:38:52;;;;;;;6.88;6.28;;;15.40;55.70;;;;;;4995293;28;20496;-79
2021/04/29 07:41:23;;;;;;;6.53;5.95;;;15.50;55.30;;;;;;5011471;28;20029;-80
2021/04/29 07:43:49;;;;;;;6.32;5.45;;;15.60;55.20;;;;;;5011151;28;20040;-81
2021/04/29 07:46:16;;;;;;;9.00;6.32;;;15.70;55.00;;;;;;5029852;28;20432;-80
2021/04/29 07:48:42;;;;;;;7.20;5.95;;;15.80;54.90;;;;;;5011044;28;20393;-82
2021/04/29 07:51:08;;;;;;;6.47;5.88;;;15.80;54.60;;;;;;4995808;28;20130;-82
2021/04/29 07:53:34;;;;;;;8.80;5.80;;;15.90;54.50;;;;;;5012278;28;20611;-81
2021/04/29 07:56:00;;;;;;;7.07;6.28;;;15.90;54.30;;;;;;5029971;28;20065;-82
2021/04/29 07:58:26;;;;;;;7.75;6.57;;;15.90;54.10;;;;;;5012349;28;20053;-82
2021/04/29 08:00:53;;;;;;;7.63;6.07;;;16.00;54.10;;;;;;4995188;28;20045;-80
2021/04/29 08:03:20;;;;;;;6.32;5.72;;;16.10;54.10;;;;;;4994766;28;20029;-83
2021/04/29 08:05:46;;;;;;;8.52;6.40;;;16.10;53.70;;;;;;5029718;28;20041;-81
2021/04/29 08:08:12;;;;;;;9.77;5.78;;;16.20;53.60;;;;;;5012106;28;20041;-82
2021/04/29 08:10:41;;;;;;;6.97;5.80;;;16.20;53.30;;;;;;5012167;28;20541;-83
2021/04/29 08:13:09;;;;;;;6.80;6.15;;;16.20;53.10;;;;;;5011098;28;20037;-83
2021/04/29 08:15:35;;;;;;;6.32;5.72;;;16.20;52.90;;;;;;5011711;28;20068;-84
2021/04/29 08:18:01;;;;;;;6.70;6.00;;;16.20;52.80;;;;;;4995367;28;20038;-87
2021/04/29 08:20:28;;;;;;;7.85;6.03;;;16.30;52.80;;;;;;5028632;28;20037;-84
2021/04/29 08:22:54;;;;;;;5.90;5.30;;;16.30;52.60;;;;;;4995017;28;20378;-84
2021/04/29 08:25:22;;;;;;;6.15;5.50;;;16.40;52.60;;;;;;5028302;28;20116;-82
2021/04/29 08:27:48;;;;;;;6.72;6.05;;;16.50;52.40;;;;;;5011274;28;20033;-83
2021/04/29 08:30:14;;;;;;;6.63;6.03;;;16.50;52.10;;;;;;5012290;28;20033;-86
2021/04/29 08:32:40;;;;;;;7.70;5.78;;;16.50;52.00;;;;;;5011226;28;20510;-84
2021/04/29 08:35:07;;;;;;;8.35;5.80;;;16.60;52.00;;;;;;5011429;28;20120;-84
2021/04/29 08:37:33;;;;;;;5.90;5.40;;;16.60;51.70;;;;;;5028534;28;20032;-84
2021/04/29 08:39:59;;;;;;;7.00;6.30;;;16.60;51.50;;;;;;5027501;28;20037;-84
2021/04/29 08:42:28;;;;;;;7.90;5.60;;;16.60;51.30;;;;;;5011304;28;20029;-82
2021/04/29 08:44:57;;;;;;;7.65;6.15;;;16.60;51.10;;;;;;5027266;28;20072;-84
2021/04/29 08:47:31;;;;;;;7.50;6.10;;;16.60;50.90;;;;;;4995813;28;20382;-86
2021/04/29 08:50:20;;;;;;;7.00;5.95;;;16.60;50.60;;;;;;5014010;28;20034;-84
2021/04/29 08:52:47;;;;;;;7.60;6.30;;;16.60;50.50;;;;;;5010316;28;20623;-82
2021/04/29 08:55:41;;;;;;;6.15;5.43;;;16.60;50.50;;;;;;5011763;28;20041;-83
2021/04/29 08:58:08;;;;;;;9.20;6.35;;;16.50;50.40;;;;;;4994171;28;20658;-87
2021/04/29 09:00:35;;;;;;;9.05;6.75;;;16.50;50.30;;;;;;5028523;28;20472;-85
2021/04/29 09:03:02;;;;;;;11.30;6.55;;;16.50;50.20;;;;;;5011295;28;20057;-84
2021/04/29 09:05:51;;;;;;;7.88;6.07;;;16.50;50.20;;;;;;5012440;28;20534;-85
2021/04/29 09:09:12;;;;;;;7.22;5.80;;;16.50;50.00;;;;;;5011924;28;20033;-85
2021/04/29 09:20:10;;;;;;;9.98;6.15;;;16.50;49.50;;;;;;5004497;28;20036;-83
2021/04/29 09:22:37;;;;;;;12.48;6.65;;;16.50;49.40;;;;;;4974676;28;20029;-87
2021/04/29 09:25:12;;;;;;;7.35;5.97;;;16.60;49.60;;;;;;5005799;28;20429;-84
2021/04/29 09:27:39;;;;;;;9.02;6.28;;;16.50;49.20;;;;;;5005279;28;20312;-83
2021/04/29 09:30:27;;;;;;;8.10;5.80;;;16.60;49.30;;;;;;4990296;28;20085;-89
2021/04/29 09:33:01;;;;;;;7.13;6.28;;;16.60;49.20;;;;;;4987789;28;20053;-82
2021/04/29 09:35:28;;;;;;;5.85;5.25;;;16.70;49.20;;;;;;4972860;28;20052;-86
2021/04/29 09:38:01;;;;;;;6.82;5.35;;;16.70;49.20;;;;;;4972357;28;20045;-82
2021/04/29 09:40:59;;;;;;;;;;;16.70;49.10;;;;;;4974423;28;20449;-88
2021/04/29 09:43:26;;;;;;;6.28;5.05;;;16.80;49.40;;;;;;4990935;28;19968;-87
2021/04/29 09:46:47;;;;;;;7.85;5.63;;;16.80;49.20;;;;;;5004264;28;20401;-84
2021/04/29 09:50:28;;;;;;;7.57;5.22;;;16.90;49.20;;;;;;4949897;28;20131;-85
2021/04/29 09:58:14;;;;;;;7.90;4.88;;;16.90;49.00;;;;;;4938288;28;20110;-83
2021/04/29 10:00:49;;;;;;;6.88;5.38;;;17.00;49.10;;;;;;4950048;28;20031;-82
2021/04/29 10:03:20;;;;;;;5.25;4.80;;;17.00;48.90;;;;;;4951561;28;20027;-84
2021/04/29 10:05:51;;;;;;;6.60;5.38;;;17.00;48.80;;;;;;4957210;28;20164;-86
2021/04/29 10:08:25;;;;;;;6.07;5.35;;;17.00;48.80;;;;;;5020333;28;20034;-84
2021/04/29 10:10:56;;;;;;;6.43;5.03;;;17.00;48.60;;;;;;5039966;28;20057;-86
2021/04/29 10:13:30;;;;;;;6.28;5.53;;;17.10;48.70;;;;;;5043218;28;20042;-88
2021/04/29 10:15:57;;;;;;;7.55;5.18;;;17.10;48.50;;;;;;5024929;28;20049;-83
2021/04/29 10:18:24;;;;;;;5.45;4.78;;;17.10;48.50;;;;;;5010799;28;20038;-82
2021/04/29 10:20:51;;;;;;;5.93;5.22;;;17.20;48.50;;;;;;5009536;28;20033;-82
2021/04/29 10:23:21;;;;;;;5.28;4.78;;;17.20;48.40;;;;;;5031042;28;20035;-81
2021/04/29 10:26:01;;;;;;;4.70;4.30;;;17.30;48.50;;;;;;5029269;28;20067;-86
2021/04/29 10:28:41;;;;;;;6.20;5.50;;;17.40;48.50;;;;;;5020054;28;20061;-77
2021/04/29 10:31:24;;;;;;;5.38;4.85;;;17.50;48.50;;;;;;5025816;28;20049;-82
2021/04/29 10:34:10;;;;;;;5.28;4.78;;;17.60;48.50;;;;;;5026700;28;20037;-81
2021/04/29 10:36:41;;;;;;;5.20;4.70;;;17.80;48.80;;;;;;5009526;28;20033;-84
2021/04/29 10:39:33;;;;;;;6.75;4.78;;;17.90;48.80;;;;;;5027713;28;20037;-85
2021/04/29 10:42:07;;;;;;;7.55;4.72;;;18.10;48.80;;;;;;5007044;28;20026;-80
2021/04/29 10:44:48;;;;;;;5.63;4.95;;;18.30;48.90;;;;;;5008800;28;20033;-81
2021/04/29 10:47:28;;;;;;;5.35;4.88;;;18.40;48.90;;;;;;5028712;28;20472;-83
2021/04/29 10:50:10;;;;;;;5.70;4.88;;;18.40;48.70;;;;;;4997179;28;20037;-84
2021/04/29 10:52:59;;;;;;;5.00;4.55;;;18.40;48.60;;;;;;5013437;28;20674;-83
2021/04/29 10:55:31;;;;;;;5.63;5.15;;;18.40;48.50;;;;;;5012944;28;20052;-84
2021/04/29 10:57:59;;;;;;;5.80;5.22;;;18.40;48.60;;;;;;5012867;28;20437;-81
2021/04/29 11:00:30;;;;;;;6.57;4.72;;;18.30;48.50;;;;;;5028886;28;20057;-82
2021/04/29 11:03:05;;;;;;;5.10;4.65;;;18.30;48.50;;;;;;4996610;28;20028;-81
2021/04/29 11:05:35;;;;;;;5.95;4.40;;;18.30;48.50;;;;;;5012287;28;20044;-82
2021/04/29 11:08:09;;;;;;;6.50;5.15;;;18.30;48.60;;;;;;5013458;28;20370;-83
2021/04/29 11:11:00;;;;;;;6.72;4.90;;;18.30;48.50;;;;;;4995510;28;20049;-86
2021/04/29 11:13:35;;;;;;;6.43;4.78;;;18.40;48.60;;;;;;5011837;28;20111;-83
2021/04/29 11:16:29;;;;;;;5.45;4.95;;;18.60;48.80;;;;;;4980040;28;20306;-85
2021/04/29 11:26:41;;;;;;;5.00;4.50;;;19.20;49.00;;;;;;4988262;28;20050;-85
2021/04/29 11:29:06;;;;;;;5.63;4.68;;;19.30;49.00;;;;;;4974032;28;20034;-84
2021/04/29 11:31:38;;;;;;;4.25;3.90;;;19.40;49.10;;;;;;4952503;28;20066;-85
2021/04/29 11:34:05;;;;;;;5.20;4.68;;;19.40;48.90;;;;;;4952863;28;20042;-85
2021/04/29 11:36:31;;;;;;;4.45;4.05;;;19.40;48.90;;;;;;4937019;28;20398;-83
2021/04/29 11:47:11;;;;;;;4.65;4.25;;;19.40;48.70;;;;;;4952798;28;20129;-85
2021/04/29 11:49:37;;;;;;;4.82;4.38;;;19.50;48.90;;;;;;4968723;28;20041;-84
2021/04/29 11:52:04;;;;;;;4.10;3.72;;;19.50;48.90;;;;;;4968801;28;20058;-89
2021/04/29 11:54:30;;;;;;;5.40;4.22;;;19.60;48.90;;;;;;4956186;28;20073;-90
2021/04/29 11:57:01;;;;;;;4.45;4.05;;;19.70;49.00;;;;;;4973119;28;20128;-84
2021/04/29 11:59:31;;;;;;;4.45;4.05;;;19.70;48.80;;;;;;4972600;28;20042;-86
2021/04/29 12:02:01;;;;;;;4.57;4.18;;;19.80;48.80;;;;;;4971630;28;20561;-84
2021/04/29 12:04:27;;;;;;;5.18;4.35;;;20.00;49.00;;;;;;4986964;28;20034;-84
2021/04/29 12:07:02;;;;;;;4.18;3.85;;;20.10;49.00;;;;;;5004835;28;20040;-88
2021/04/29 12:09:28;;;;;;;4.35;4.03;;;20.30;49.10;;;;;;5029577;28;20091;-84
2021/04/29 12:12:07;;;;;;;4.22;3.47;;;20.40;49.10;;;;;;5011124;28;20303;-83
2021/04/29 12:14:33;;;;;;;4.18;3.78;;;20.50;49.10;;;;;;5010517;28;20154;-84
2021/04/29 12:17:01;;;;;;;4.72;3.70;;;20.60;49.10;;;;;;5027728;28;20026;-86
2021/04/29 12:19:29;;;;;;;4.68;4.18;;;20.70;49.10;;;;;;5010745;28;20041;-81
2021/04/29 12:21:56;;;;;;;4.93;4.38;;;20.80;49.00;;;;;;5011849;28;20030;-85
2021/04/29 12:24:23;;;;;;;5.18;4.43;;;20.90;49.00;;;;;;5011173;28;20119;-86
2021/04/29 12:26:49;;;;;;;5.55;3.72;;;21.00;49.10;;;;;;5029174;28;20292;-83
2021/04/29 12:29:20;;;;;;;4.13;3.80;;;21.00;49.00;;;;;;4995359;28;20060;-84
2021/04/29 12:40:17;;;;;;;2.75;2.55;;;21.40;49.10;;;;;;5029092;28;20111;-84
2021/04/29 12:43:19;;;;;;;4.47;3.47;;;21.40;49.10;;;;;;5023211;28;20045;-83
2021/04/29 12:45:45;;;;;;;4.75;3.47;;;21.50;49.20;;;;;;4987426;28;20504;-85
2021/04/29 12:48:11;;;;;;;4.10;3.47;;;21.60;49.30;;;;;;5028039;28;20061;-84
2021/04/29 12:50:37;;;;;;;3.35;3.05;;;21.70;49.20;;;;;;4994230;28;20037;-83
2021/04/29 12:53:03;;;;;;;4.70;3.95;;;21.60;48.80;;;;;;5010585;28;20032;-88
2021/04/29 12:55:29;;;;;;;3.45;3.15;;;21.60;48.80;;;;;;5011480;28;20045;-86
2021/04/29 12:58:34;;;;;;;4.07;3.72;;;21.70;49.00;;;;;;5010654;28;20021;-82
2021/04/29 13:01:12;;;;;;;3.55;2.97;;;21.80;49.00;;;;;;4988806;28;20033;-84
2021/04/29 13:04:03;;;;;;;3.53;3.22;;;21.90;49.00;;;;;;5001914;28;20037;-83
2021/04/29 13:06:40;;;;;;;5.95;3.50;;;22.10;49.20;;;;;;4993758;28;20025;-82
2021/04/29 13:09:06;;;;;;;3.78;3.13;;;22.30;49.30;;;;;;4993885;28;20034;-84
2021/04/29 13:11:41;;;;;;;3.13;2.88;;;22.50;49.30;;;;;;4994344;28;20033;-85
2021/04/29 13:14:16;;;;;;;4.03;3.30;;;22.70;49.20;;;;;;5028707;28;20034;-88
2021/04/29 13:16:46;;;;;;;4.57;2.85;;;22.80;49.20;;;;;;5012039;28;20449;-86
2021/04/29 13:19:14;;;;;;;2.75;2.45;;;23.00;49.40;;;;;;4979439;28;20116;-87
2021/04/29 13:21:43;;;;;;;3.88;3.20;;;23.10;49.30;;;;;;5011256;28;20029;-87
2021/04/29 13:24:09;;;;;;;3.22;3.03;;;23.30;49.50;;;;;;5033316;28;20025;-84
2021/04/29 13:26:36;;;;;;;3.00;2.78;;;23.30;49.20;;;;;;5026711;28;20784;-86
2021/04/29 13:29:03;;;;;;;3.03;2.72;;;23.30;49.10;;;;;;5011108;28;20059;-85
2021/04/29 13:31:29;;;;;;;3.22;2.92;;;23.30;49.00;;;;;;4993824;28;20060;-82
2021/04/29 13:33:57;;;;;;;3.75;3.10;;;23.30;49.00;;;;;;5005907;28;20045;-84
2021/04/29 13:36:24;;;;;;;3.58;3.17;;;23.30;48.90;;;;;;5022160;28;20397;-82
2021/04/29 13:38:52;;;;;;;4.60;3.28;;;23.20;48.70;;;;;;4977259;28;20025;-84
2021/04/29 13:41:19;;;;;;;3.47;3.15;;;23.10;48.60;;;;;;5009590;28;20034;-81